sensor_id;sensor_type;location;lat;lon;timestamp;P1;durP1;ratioP1;P2;durP2;ratioP2
81273;SDS011;70753;47.908;11.274;2023-09-18T00:02:14;6.30;;;2.97;;
81273;SDS011;70753;47.908;11.274;2023-09-18T00:04:39;4.90;;;2.70;;
81273;SDS011;70753;47.908;11.274;2023-09-18T00:07:05;6.18;;;2.92;;
81273;SDS011;70753;47.908;11.274;2023-09-18T00:09:30;5.70;;;2.72;;
81273;SDS011;70753;47.908;11.274;2023-09-18T00:11:55;5.82;;;2.65;;
81273;SDS011;70753;47.908;11.274;2023-09-18T00:14:21;5.00;;;2.80;;
81273;SDS011;70753;47.908;11.274;2023-09-18T00:16:47;4.50;;;2.78;;
81273;SDS011;70753;47.908;11.274;2023-09-18T00:19:13;5.53;;;3.00;;
81273;SDS011;70753;47.908;11.274;2023-09-18T00:21:38;5.65;;;2.97;;
81273;SDS011;70753;47.908;11.274;2023-09-18T00:24:04;6.13;;;2.80;;
81273;SDS011;70753;47.908;11.274;2023-09-18T00:26:29;5.05;;;2.75;;
81273;SDS011;70753;47.908;11.274;2023-09-18T00:28:55;5.35;;;2.63;;
81273;SDS011;70753;47.908;11.274;2023-09-18T00:31:20;6.63;;;3.00;;
81273;SDS011;70753;47.908;11.274;2023-09-18T00:33:47;4.88;;;3.03;;
81273;SDS011;70753;47.908;11.274;2023-09-18T00:36:12;5.30;;;2.90;;
81273;SDS011;70753;47.908;11.274;2023-09-18T00:38:38;6.13;;;2.95;;
81273;SDS011;70753;47.908;11.274;2023-09-18T00:41:04;6.07;;;3.00;;
81273;SDS011;70753;47.908;11.274;2023-09-18T00:43:29;7.75;;;3.10;;
81273;SDS011;70753;47.908;11.274;2023-09-18T00:45:55;5.63;;;2.60;;
81273;SDS011;70753;47.908;11.274;2023-09-18T00:48:20;5.78;;;2.70;;
81273;SDS011;70753;47.908;11.274;2023-09-18T00:50:47;5.07;;;2.92;;
81273;SDS011;70753;47.908;11.274;2023-09-18T00:53:14;4.80;;;2.63;;
81273;SDS011;70753;47.908;11.274;2023-09-18T00:55:43;4.72;;;2.88;;
81273;SDS011;70753;47.908;11.274;2023-09-18T00:58:09;4.70;;;2.47;;
81273;SDS011;70753;47.908;11.274;2023-09-18T01:00:35;6.95;;;2.90;;
81273;SDS011;70753;47.908;11.274;2023-09-18T01:03:01;5.25;;;2.85;;
81273;SDS011;70753;47.908;11.274;2023-09-18T01:05:27;4.78;;;2.50;;
81273;SDS011;70753;47.908;11.274;2023-09-18T01:07:54;5.68;;;3.05;;
81273;SDS011;70753;47.908;11.274;2023-09-18T01:10:19;3.90;;;2.50;;
81273;SDS011;70753;47.908;11.274;2023-09-18T01:12:51;6.38;;;2.70;;
81273;SDS011;70753;47.908;11.274;2023-09-18T01:15:22;6.20;;;2.75;;
81273;SDS011;70753;47.908;11.274;2023-09-18T01:17:49;4.65;;;2.67;;
81273;SDS011;70753;47.908;11.274;2023-09-18T01:20:15;5.00;;;2.50;;
81273;SDS011;70753;47.908;11.274;2023-09-18T01:22:43;5.68;;;2.70;;
81273;SDS011;70753;47.908;11.274;2023-09-18T01:25:09;5.95;;;2.90;;
81273;SDS011;70753;47.908;11.274;2023-09-18T01:27:34;4.95;;;2.78;;
81273;SDS011;70753;47.908;11.274;2023-09-18T01:30:00;4.55;;;2.33;;
81273;SDS011;70753;47.908;11.274;2023-09-18T01:32:26;6.40;;;2.80;;
81273;SDS011;70753;47.908;11.274;2023-09-18T01:34:54;5.75;;;3.03;;
81273;SDS011;70753;47.908;11.274;2023-09-18T01:37:23;5.05;;;2.55;;
81273;SDS011;70753;47.908;11.274;2023-09-18T01:39:52;8.50;;;2.80;;
81273;SDS011;70753;47.908;11.274;2023-09-18T01:42:18;6.25;;;3.20;;
81273;SDS011;70753;47.908;11.274;2023-09-18T01:44:45;4.90;;;2.53;;
81273;SDS011;70753;47.908;11.274;2023-09-18T01:47:12;5.70;;;3.03;;
81273;SDS011;70753;47.908;11.274;2023-09-18T01:49:40;5.55;;;2.50;;
81273;SDS011;70753;47.908;11.274;2023-09-18T01:52:06;4.85;;;2.40;;
81273;SDS011;70753;47.908;11.274;2023-09-18T01:54:33;4.75;;;2.47;;
81273;SDS011;70753;47.908;11.274;2023-09-18T01:57:00;5.70;;;2.80;;
81273;SDS011;70753;47.908;11.274;2023-09-18T01:59:26;7.03;;;2.50;;
81273;SDS011;70753;47.908;11.274;2023-09-18T02:01:52;8.15;;;3.20;;
81273;SDS011;70753;47.908;11.274;2023-09-18T02:04:18;4.80;;;2.55;;
81273;SDS011;70753;47.908;11.274;2023-09-18T02:06:44;6.65;;;2.55;;
81273;SDS011;70753;47.908;11.274;2023-09-18T02:09:10;8.60;;;2.83;;
81273;SDS011;70753;47.908;11.274;2023-09-18T02:11:36;5.28;;;2.50;;
81273;SDS011;70753;47.908;11.274;2023-09-18T02:14:04;4.78;;;2.42;;
81273;SDS011;70753;47.908;11.274;2023-09-18T02:16:30;4.93;;;2.17;;
81273;SDS011;70753;47.908;11.274;2023-09-18T02:18:55;8.13;;;2.45;;
81273;SDS011;70753;47.908;11.274;2023-09-18T02:21:21;5.78;;;2.70;;
81273;SDS011;70753;47.908;11.274;2023-09-18T02:23:48;5.75;;;2.50;;
81273;SDS011;70753;47.908;11.274;2023-09-18T02:26:14;5.32;;;2.30;;
81273;SDS011;70753;47.908;11.274;2023-09-18T02:28:40;8.20;;;3.00;;
81273;SDS011;70753;47.908;11.274;2023-09-18T02:31:06;5.28;;;2.30;;
81273;SDS011;70753;47.908;11.274;2023-09-18T02:33:32;6.70;;;2.10;;
81273;SDS011;70753;47.908;11.274;2023-09-18T02:35:57;6.90;;;2.58;;
81273;SDS011;70753;47.908;11.274;2023-09-18T02:38:23;4.38;;;2.47;;
81273;SDS011;70753;47.908;11.274;2023-09-18T02:40:48;8.02;;;2.65;;
81273;SDS011;70753;47.908;11.274;2023-09-18T02:43:13;7.88;;;2.42;;
81273;SDS011;70753;47.908;11.274;2023-09-18T02:45:39;5.95;;;2.42;;
81273;SDS011;70753;47.908;11.274;2023-09-18T02:48:06;5.82;;;2.50;;
81273;SDS011;70753;47.908;11.274;2023-09-18T02:50:32;5.20;;;2.60;;
81273;SDS011;70753;47.908;11.274;2023-09-18T02:52:58;7.57;;;2.72;;
81273;SDS011;70753;47.908;11.274;2023-09-18T02:55:23;9.02;;;2.88;;
81273;SDS011;70753;47.908;11.274;2023-09-18T02:57:49;4.85;;;2.47;;
81273;SDS011;70753;47.908;11.274;2023-09-18T03:00:15;5.47;;;2.40;;
81273;SDS011;70753;47.908;11.274;2023-09-18T03:02:41;4.82;;;2.50;;
81273;SDS011;70753;47.908;11.274;2023-09-18T03:05:08;4.70;;;2.28;;
81273;SDS011;70753;47.908;11.274;2023-09-18T03:07:34;5.20;;;2.22;;
81273;SDS011;70753;47.908;11.274;2023-09-18T03:09:59;5.18;;;2.22;;
81273;SDS011;70753;47.908;11.274;2023-09-18T03:12:24;6.13;;;2.67;;
81273;SDS011;70753;47.908;11.274;2023-09-18T03:14:50;4.65;;;2.42;;
81273;SDS011;70753;47.908;11.274;2023-09-18T03:17:15;4.88;;;2.20;;
81273;SDS011;70753;47.908;11.274;2023-09-18T03:19:41;7.07;;;2.30;;
81273;SDS011;70753;47.908;11.274;2023-09-18T03:22:07;5.47;;;2.13;;
81273;SDS011;70753;47.908;11.274;2023-09-18T03:24:33;5.63;;;2.60;;
81273;SDS011;70753;47.908;11.274;2023-09-18T03:26:58;8.18;;;2.50;;
81273;SDS011;70753;47.908;11.274;2023-09-18T03:29:24;6.32;;;2.85;;
81273;SDS011;70753;47.908;11.274;2023-09-18T03:31:49;6.10;;;2.60;;
81273;SDS011;70753;47.908;11.274;2023-09-18T03:34:15;6.00;;;2.40;;
81273;SDS011;70753;47.908;11.274;2023-09-18T03:36:40;5.55;;;2.45;;
81273;SDS011;70753;47.908;11.274;2023-09-18T03:39:07;9.45;;;2.85;;
81273;SDS011;70753;47.908;11.274;2023-09-18T03:41:32;7.75;;;2.20;;
81273;SDS011;70753;47.908;11.274;2023-09-18T03:43:58;5.15;;;2.42;;
81273;SDS011;70753;47.908;11.274;2023-09-18T03:46:23;5.15;;;2.47;;
81273;SDS011;70753;47.908;11.274;2023-09-18T03:48:49;5.60;;;2.50;;
81273;SDS011;70753;47.908;11.274;2023-09-18T03:51:15;7.38;;;2.47;;
81273;SDS011;70753;47.908;11.274;2023-09-18T03:53:40;11.23;;;2.60;;
81273;SDS011;70753;47.908;11.274;2023-09-18T03:56:07;9.55;;;3.45;;
81273;SDS011;70753;47.908;11.274;2023-09-18T03:58:32;6.38;;;2.60;;
81273;SDS011;70753;47.908;11.274;2023-09-18T04:00:58;7.97;;;2.72;;
81273;SDS011;70753;47.908;11.274;2023-09-18T04:03:23;6.93;;;2.83;;
81273;SDS011;70753;47.908;11.274;2023-09-18T04:05:49;6.05;;;2.95;;
81273;SDS011;70753;47.908;11.274;2023-09-18T04:08:15;9.90;;;4.00;;
81273;SDS011;70753;47.908;11.274;2023-09-18T04:10:40;7.05;;;2.88;;
81273;SDS011;70753;47.908;11.274;2023-09-18T04:13:07;7.15;;;3.03;;
81273;SDS011;70753;47.908;11.274;2023-09-18T04:15:32;5.97;;;2.40;;
81273;SDS011;70753;47.908;11.274;2023-09-18T04:17:58;5.53;;;2.55;;
81273;SDS011;70753;47.908;11.274;2023-09-18T04:20:23;5.75;;;2.33;;
81273;SDS011;70753;47.908;11.274;2023-09-18T04:23:16;13.23;;;3.40;;
81273;SDS011;70753;47.908;11.274;2023-09-18T04:25:44;10.68;;;2.63;;
81273;SDS011;70753;47.908;11.274;2023-09-18T04:28:12;7.82;;;2.78;;
81273;SDS011;70753;47.908;11.274;2023-09-18T04:30:37;8.93;;;3.50;;
81273;SDS011;70753;47.908;11.274;2023-09-18T04:33:03;8.55;;;2.90;;
81273;SDS011;70753;47.908;11.274;2023-09-18T04:35:28;8.27;;;2.70;;
81273;SDS011;70753;47.908;11.274;2023-09-18T04:37:55;7.38;;;2.90;;
81273;SDS011;70753;47.908;11.274;2023-09-18T04:40:20;5.15;;;2.30;;
81273;SDS011;70753;47.908;11.274;2023-09-18T04:42:46;5.72;;;2.50;;
81273;SDS011;70753;47.908;11.274;2023-09-18T04:45:13;16.13;;;2.85;;
81273;SDS011;70753;47.908;11.274;2023-09-18T04:47:39;8.07;;;2.80;;
81273;SDS011;70753;47.908;11.274;2023-09-18T04:50:04;5.78;;;2.55;;
81273;SDS011;70753;47.908;11.274;2023-09-18T04:52:30;6.07;;;2.50;;
81273;SDS011;70753;47.908;11.274;2023-09-18T04:54:55;9.63;;;2.85;;
81273;SDS011;70753;47.908;11.274;2023-09-18T04:57:21;13.88;;;2.85;;
81273;SDS011;70753;47.908;11.274;2023-09-18T04:59:46;7.55;;;3.08;;
81273;SDS011;70753;47.908;11.274;2023-09-18T05:02:13;9.18;;;3.20;;
81273;SDS011;70753;47.908;11.274;2023-09-18T05:04:38;8.25;;;3.75;;
81273;SDS011;70753;47.908;11.274;2023-09-18T05:07:04;6.25;;;3.00;;
81273;SDS011;70753;47.908;11.274;2023-09-18T05:09:29;9.60;;;2.90;;
81273;SDS011;70753;47.908;11.274;2023-09-18T05:11:55;8.40;;;2.40;;
81273;SDS011;70753;47.908;11.274;2023-09-18T05:14:20;7.15;;;2.90;;
81273;SDS011;70753;47.908;11.274;2023-09-18T05:16:45;7.88;;;2.60;;
81273;SDS011;70753;47.908;11.274;2023-09-18T05:19:12;7.38;;;2.70;;
81273;SDS011;70753;47.908;11.274;2023-09-18T05:21:38;6.38;;;2.90;;
81273;SDS011;70753;47.908;11.274;2023-09-18T05:24:04;5.38;;;2.42;;
81273;SDS011;70753;47.908;11.274;2023-09-18T05:26:29;10.48;;;3.10;;
81273;SDS011;70753;47.908;11.274;2023-09-18T05:28:56;9.00;;;3.38;;
81273;SDS011;70753;47.908;11.274;2023-09-18T05:31:21;15.95;;;4.57;;
81273;SDS011;70753;47.908;11.274;2023-09-18T05:33:48;18.17;;;6.00;;
81273;SDS011;70753;47.908;11.274;2023-09-18T05:36:15;18.10;;;6.22;;
81273;SDS011;70753;47.908;11.274;2023-09-18T05:38:41;20.48;;;6.82;;
81273;SDS011;70753;47.908;11.274;2023-09-18T05:41:07;11.15;;;4.15;;
81273;SDS011;70753;47.908;11.274;2023-09-18T05:43:32;7.80;;;3.03;;
81273;SDS011;70753;47.908;11.274;2023-09-18T05:45:57;13.15;;;2.95;;
81273;SDS011;70753;47.908;11.274;2023-09-18T05:48:24;9.60;;;2.78;;
81273;SDS011;70753;47.908;11.274;2023-09-18T05:50:50;6.97;;;2.90;;
81273;SDS011;70753;47.908;11.274;2023-09-18T05:53:16;6.90;;;2.63;;
81273;SDS011;70753;47.908;11.274;2023-09-18T05:55:42;7.50;;;2.72;;
81273;SDS011;70753;47.908;11.274;2023-09-18T05:58:08;9.63;;;2.90;;
81273;SDS011;70753;47.908;11.274;2023-09-18T06:00:33;9.00;;;2.97;;
81273;SDS011;70753;47.908;11.274;2023-09-18T06:02:59;10.32;;;2.70;;
81273;SDS011;70753;47.908;11.274;2023-09-18T06:05:25;9.90;;;2.90;;
81273;SDS011;70753;47.908;11.274;2023-09-18T06:07:51;10.38;;;2.95;;
81273;SDS011;70753;47.908;11.274;2023-09-18T06:10:18;12.95;;;3.00;;
81273;SDS011;70753;47.908;11.274;2023-09-18T06:12:44;8.10;;;2.95;;
81273;SDS011;70753;47.908;11.274;2023-09-18T06:15:10;7.30;;;3.00;;
81273;SDS011;70753;47.908;11.274;2023-09-18T06:17:36;10.55;;;4.32;;
81273;SDS011;70753;47.908;11.274;2023-09-18T06:20:02;24.25;;;10.73;;
81273;SDS011;70753;47.908;11.274;2023-09-18T06:22:28;34.67;;;14.48;;
81273;SDS011;70753;47.908;11.274;2023-09-18T06:24:53;31.00;;;13.07;;
81273;SDS011;70753;47.908;11.274;2023-09-18T06:27:20;41.30;;;18.13;;
81273;SDS011;70753;47.908;11.274;2023-09-18T06:29:47;17.17;;;5.32;;
81273;SDS011;70753;47.908;11.274;2023-09-18T06:32:12;9.00;;;2.75;;
81273;SDS011;70753;47.908;11.274;2023-09-18T06:34:38;8.68;;;3.80;;
81273;SDS011;70753;47.908;11.274;2023-09-18T06:37:04;8.18;;;3.00;;
81273;SDS011;70753;47.908;11.274;2023-09-18T06:39:29;16.83;;;6.68;;
81273;SDS011;70753;47.908;11.274;2023-09-18T06:41:54;14.93;;;6.80;;
81273;SDS011;70753;47.908;11.274;2023-09-18T06:44:22;9.30;;;3.80;;
81273;SDS011;70753;47.908;11.274;2023-09-18T06:46:47;11.90;;;3.80;;
81273;SDS011;70753;47.908;11.274;2023-09-18T06:49:12;12.52;;;3.70;;
81273;SDS011;70753;47.908;11.274;2023-09-18T06:51:38;12.90;;;4.47;;
81273;SDS011;70753;47.908;11.274;2023-09-18T06:54:03;9.77;;;3.55;;
81273;SDS011;70753;47.908;11.274;2023-09-18T06:56:30;12.65;;;3.65;;
81273;SDS011;70753;47.908;11.274;2023-09-18T06:58:55;11.57;;;3.65;;
81273;SDS011;70753;47.908;11.274;2023-09-18T07:01:22;8.98;;;3.05;;
81273;SDS011;70753;47.908;11.274;2023-09-18T07:03:48;10.40;;;3.50;;
81273;SDS011;70753;47.908;11.274;2023-09-18T07:06:13;10.82;;;3.42;;
81273;SDS011;70753;47.908;11.274;2023-09-18T07:08:39;9.05;;;3.10;;
81273;SDS011;70753;47.908;11.274;2023-09-18T07:11:04;14.68;;;2.88;;
81273;SDS011;70753;47.908;11.274;2023-09-18T07:13:30;6.65;;;2.47;;
81273;SDS011;70753;47.908;11.274;2023-09-18T07:15:55;10.30;;;2.80;;
81273;SDS011;70753;47.908;11.274;2023-09-18T07:18:22;10.32;;;2.72;;
81273;SDS011;70753;47.908;11.274;2023-09-18T07:20:47;11.32;;;2.50;;
81273;SDS011;70753;47.908;11.274;2023-09-18T07:23:13;9.65;;;2.50;;
81273;SDS011;70753;47.908;11.274;2023-09-18T07:25:38;10.70;;;2.30;;
81273;SDS011;70753;47.908;11.274;2023-09-18T07:28:04;12.85;;;2.45;;
81273;SDS011;70753;47.908;11.274;2023-09-18T07:30:30;13.75;;;2.15;;
81273;SDS011;70753;47.908;11.274;2023-09-18T07:32:56;10.77;;;3.00;;
81273;SDS011;70753;47.908;11.274;2023-09-18T07:35:23;13.65;;;2.60;;
81273;SDS011;70753;47.908;11.274;2023-09-18T07:37:48;12.13;;;2.42;;
81273;SDS011;70753;47.908;11.274;2023-09-18T07:40:14;11.85;;;2.38;;
81273;SDS011;70753;47.908;11.274;2023-09-18T07:42:39;11.00;;;2.47;;
81273;SDS011;70753;47.908;11.274;2023-09-18T07:45:05;14.43;;;2.58;;
81273;SDS011;70753;47.908;11.274;2023-09-18T07:47:31;9.32;;;2.35;;
81273;SDS011;70753;47.908;11.274;2023-09-18T07:49:57;13.07;;;2.60;;
81273;SDS011;70753;47.908;11.274;2023-09-18T07:52:23;12.80;;;2.75;;
81273;SDS011;70753;47.908;11.274;2023-09-18T07:54:49;17.13;;;2.58;;
81273;SDS011;70753;47.908;11.274;2023-09-18T07:57:15;10.80;;;2.20;;
81273;SDS011;70753;47.908;11.274;2023-09-18T07:59:41;10.02;;;2.28;;
81273;SDS011;70753;47.908;11.274;2023-09-18T08:02:06;8.93;;;2.22;;
81273;SDS011;70753;47.908;11.274;2023-09-18T08:04:32;10.30;;;2.85;;
81273;SDS011;70753;47.908;11.274;2023-09-18T08:06:57;14.05;;;2.42;;
81273;SDS011;70753;47.908;11.274;2023-09-18T08:09:25;12.98;;;2.85;;
81273;SDS011;70753;47.908;11.274;2023-09-18T08:11:50;13.27;;;2.85;;
81273;SDS011;70753;47.908;11.274;2023-09-18T08:14:16;12.10;;;2.33;;
81273;SDS011;70753;47.908;11.274;2023-09-18T08:16:41;12.60;;;4.68;;
81273;SDS011;70753;47.908;11.274;2023-09-18T08:19:07;10.07;;;2.15;;
81273;SDS011;70753;47.908;11.274;2023-09-18T08:21:32;16.08;;;2.90;;
81273;SDS011;70753;47.908;11.274;2023-09-18T08:23:58;10.63;;;2.40;;
81273;SDS011;70753;47.908;11.274;2023-09-18T08:26:25;16.05;;;2.30;;
81273;SDS011;70753;47.908;11.274;2023-09-18T08:28:50;12.63;;;2.40;;
81273;SDS011;70753;47.908;11.274;2023-09-18T08:31:15;13.38;;;2.60;;
81273;SDS011;70753;47.908;11.274;2023-09-18T08:33:41;10.30;;;2.50;;
81273;SDS011;70753;47.908;11.274;2023-09-18T08:36:06;13.25;;;2.67;;
81273;SDS011;70753;47.908;11.274;2023-09-18T08:38:32;9.40;;;2.40;;
81273;SDS011;70753;47.908;11.274;2023-09-18T08:40:58;11.80;;;2.35;;
81273;SDS011;70753;47.908;11.274;2023-09-18T08:43:25;9.48;;;2.80;;
81273;SDS011;70753;47.908;11.274;2023-09-18T08:45:51;8.43;;;2.30;;
81273;SDS011;70753;47.908;11.274;2023-09-18T08:48:18;8.73;;;2.70;;
81273;SDS011;70753;47.908;11.274;2023-09-18T08:50:44;8.85;;;2.58;;
81273;SDS011;70753;47.908;11.274;2023-09-18T08:53:10;8.98;;;2.50;;
81273;SDS011;70753;47.908;11.274;2023-09-18T08:55:36;8.82;;;2.72;;
81273;SDS011;70753;47.908;11.274;2023-09-18T08:58:02;15.20;;;2.97;;
81273;SDS011;70753;47.908;11.274;2023-09-18T09:00:29;9.68;;;2.75;;
81273;SDS011;70753;47.908;11.274;2023-09-18T09:02:55;11.00;;;2.42;;
81273;SDS011;70753;47.908;11.274;2023-09-18T09:05:21;8.15;;;2.17;;
81273;SDS011;70753;47.908;11.274;2023-09-18T09:07:46;15.38;;;2.80;;
81273;SDS011;70753;47.908;11.274;2023-09-18T09:10:12;9.13;;;2.40;;
81273;SDS011;70753;47.908;11.274;2023-09-18T09:15:34;10.55;;;2.67;;
81273;SDS011;70753;47.908;11.274;2023-09-18T09:18:08;12.40;;;2.60;;
81273;SDS011;70753;47.908;11.274;2023-09-18T09:20:34;8.93;;;2.40;;
81273;SDS011;70753;47.908;11.274;2023-09-18T09:23:00;10.02;;;2.75;;
81273;SDS011;70753;47.908;11.274;2023-09-18T09:25:27;9.88;;;2.67;;
81273;SDS011;70753;47.908;11.274;2023-09-18T09:27:53;9.65;;;2.40;;
81273;SDS011;70753;47.908;11.274;2023-09-18T09:30:19;10.73;;;2.78;;
81273;SDS011;70753;47.908;11.274;2023-09-18T09:32:48;12.52;;;2.90;;
81273;SDS011;70753;47.908;11.274;2023-09-18T09:35:18;14.95;;;2.40;;
81273;SDS011;70753;47.908;11.274;2023-09-18T09:37:47;10.48;;;2.88;;
81273;SDS011;70753;47.908;11.274;2023-09-18T09:40:13;10.60;;;2.40;;
81273;SDS011;70753;47.908;11.274;2023-09-18T09:42:39;13.55;;;2.53;;
81273;SDS011;70753;47.908;11.274;2023-09-18T09:45:11;14.30;;;3.05;;
81273;SDS011;70753;47.908;11.274;2023-09-18T09:47:37;16.45;;;2.75;;
81273;SDS011;70753;47.908;11.274;2023-09-18T09:50:07;9.02;;;2.22;;
81273;SDS011;70753;47.908;11.274;2023-09-18T09:52:33;12.18;;;2.70;;
81273;SDS011;70753;47.908;11.274;2023-09-18T09:54:58;11.18;;;2.60;;
81273;SDS011;70753;47.908;11.274;2023-09-18T09:57:24;11.25;;;2.42;;
81273;SDS011;70753;47.908;11.274;2023-09-18T09:59:49;8.02;;;2.20;;
81273;SDS011;70753;47.908;11.274;2023-09-18T10:02:15;11.75;;;2.30;;
81273;SDS011;70753;47.908;11.274;2023-09-18T10:04:42;8.80;;;2.55;;
81273;SDS011;70753;47.908;11.274;2023-09-18T10:07:10;7.95;;;2.55;;
81273;SDS011;70753;47.908;11.274;2023-09-18T10:09:36;12.57;;;2.78;;
81273;SDS011;70753;47.908;11.274;2023-09-18T10:12:06;10.88;;;2.15;;
81273;SDS011;70753;47.908;11.274;2023-09-18T10:14:36;13.93;;;3.05;;
81273;SDS011;70753;47.908;11.274;2023-09-18T10:17:04;10.90;;;2.53;;
81273;SDS011;70753;47.908;11.274;2023-09-18T10:19:39;7.60;;;2.13;;
81273;SDS011;70753;47.908;11.274;2023-09-18T10:22:12;9.48;;;2.67;;
81273;SDS011;70753;47.908;11.274;2023-09-18T10:24:46;9.70;;;2.83;;
81273;SDS011;70753;47.908;11.274;2023-09-18T10:27:15;12.50;;;2.65;;
81273;SDS011;70753;47.908;11.274;2023-09-18T10:29:42;7.53;;;3.05;;
81273;SDS011;70753;47.908;11.274;2023-09-18T10:32:08;9.95;;;2.40;;
81273;SDS011;70753;47.908;11.274;2023-09-18T10:34:34;8.95;;;2.38;;
81273;SDS011;70753;47.908;11.274;2023-09-18T10:37:01;9.30;;;2.45;;
81273;SDS011;70753;47.908;11.274;2023-09-18T10:39:28;10.43;;;2.00;;
81273;SDS011;70753;47.908;11.274;2023-09-18T10:41:56;5.13;;;1.63;;
81273;SDS011;70753;47.908;11.274;2023-09-18T10:44:22;9.48;;;1.90;;
81273;SDS011;70753;47.908;11.274;2023-09-18T10:46:48;10.45;;;2.08;;
81273;SDS011;70753;47.908;11.274;2023-09-18T10:49:15;11.60;;;1.85;;
81273;SDS011;70753;47.908;11.274;2023-09-18T10:51:41;9.18;;;2.05;;
81273;SDS011;70753;47.908;11.274;2023-09-18T10:54:07;8.73;;;1.98;;
81273;SDS011;70753;47.908;11.274;2023-09-18T10:56:34;9.20;;;1.90;;
81273;SDS011;70753;47.908;11.274;2023-09-18T10:59:01;12.85;;;2.40;;
81273;SDS011;70753;47.908;11.274;2023-09-18T11:01:27;7.95;;;1.70;;
81273;SDS011;70753;47.908;11.274;2023-09-18T11:03:55;8.35;;;2.10;;
81273;SDS011;70753;47.908;11.274;2023-09-18T11:06:23;4.90;;;1.60;;
81273;SDS011;70753;47.908;11.274;2023-09-18T11:08:49;6.88;;;1.63;;
81273;SDS011;70753;47.908;11.274;2023-09-18T11:11:17;5.70;;;1.80;;
81273;SDS011;70753;47.908;11.274;2023-09-18T11:13:48;4.97;;;1.45;;
81273;SDS011;70753;47.908;11.274;2023-09-18T11:16:17;4.40;;;1.30;;
81273;SDS011;70753;47.908;11.274;2023-09-18T11:18:45;6.10;;;1.63;;
81273;SDS011;70753;47.908;11.274;2023-09-18T11:21:11;8.35;;;1.88;;
81273;SDS011;70753;47.908;11.274;2023-09-18T11:23:38;6.43;;;1.55;;
81273;SDS011;70753;47.908;11.274;2023-09-18T11:26:04;6.88;;;1.88;;
81273;SDS011;70753;47.908;11.274;2023-09-18T11:28:32;7.22;;;1.65;;
81273;SDS011;70753;47.908;11.274;2023-09-18T11:30:58;8.23;;;1.48;;
81273;SDS011;70753;47.908;11.274;2023-09-18T11:33:30;4.57;;;1.00;;
81273;SDS011;70753;47.908;11.274;2023-09-18T11:35:57;5.70;;;1.45;;
81273;SDS011;70753;47.908;11.274;2023-09-18T11:38:28;5.53;;;1.58;;
81273;SDS011;70753;47.908;11.274;2023-09-18T11:40:53;4.53;;;1.20;;
81273;SDS011;70753;47.908;11.274;2023-09-18T11:43:23;5.72;;;1.35;;
81273;SDS011;70753;47.908;11.274;2023-09-18T11:45:50;5.07;;;1.13;;
81273;SDS011;70753;47.908;11.274;2023-09-18T11:48:17;7.00;;;1.13;;
81273;SDS011;70753;47.908;11.274;2023-09-18T11:50:44;4.60;;;1.08;;
81273;SDS011;70753;47.908;11.274;2023-09-18T11:53:10;3.30;;;1.05;;
81273;SDS011;70753;47.908;11.274;2023-09-18T11:55:37;6.72;;;1.15;;
81273;SDS011;70753;47.908;11.274;2023-09-18T11:58:03;6.35;;;1.30;;
81273;SDS011;70753;47.908;11.274;2023-09-18T12:03:34;5.85;;;1.20;;
81273;SDS011;70753;47.908;11.274;2023-09-18T12:06:00;6.45;;;1.10;;
81273;SDS011;70753;47.908;11.274;2023-09-18T12:08:28;5.18;;;1.10;;
81273;SDS011;70753;47.908;11.274;2023-09-18T12:10:54;4.40;;;1.10;;
81273;SDS011;70753;47.908;11.274;2023-09-18T12:13:20;4.15;;;1.30;;
81273;SDS011;70753;47.908;11.274;2023-09-18T12:15:47;3.83;;;1.08;;
81273;SDS011;70753;47.908;11.274;2023-09-18T12:18:14;5.13;;;1.10;;
81273;SDS011;70753;47.908;11.274;2023-09-18T12:20:45;2.70;;;1.02;;
81273;SDS011;70753;47.908;11.274;2023-09-18T12:23:12;3.10;;;1.50;;
81273;SDS011;70753;47.908;11.274;2023-09-18T12:25:38;4.38;;;1.02;;
81273;SDS011;70753;47.908;11.274;2023-09-18T12:28:05;5.82;;;1.00;;
81273;SDS011;70753;47.908;11.274;2023-09-18T12:30:31;4.72;;;1.30;;
81273;SDS011;70753;47.908;11.274;2023-09-18T12:32:58;9.82;;;1.40;;
81273;SDS011;70753;47.908;11.274;2023-09-18T12:35:25;5.72;;;1.50;;
81273;SDS011;70753;47.908;11.274;2023-09-18T12:37:52;2.75;;;1.05;;
81273;SDS011;70753;47.908;11.274;2023-09-18T12:40:22;4.80;;;1.13;;
81273;SDS011;70753;47.908;11.274;2023-09-18T12:42:48;4.60;;;1.30;;
81273;SDS011;70753;47.908;11.274;2023-09-18T12:45:14;4.93;;;1.25;;
81273;SDS011;70753;47.908;11.274;2023-09-18T12:47:40;4.65;;;1.10;;
81273;SDS011;70753;47.908;11.274;2023-09-18T12:50:07;4.25;;;1.02;;
81273;SDS011;70753;47.908;11.274;2023-09-18T12:52:32;4.85;;;1.17;;
81273;SDS011;70753;47.908;11.274;2023-09-18T12:54:59;4.47;;;1.20;;
81273;SDS011;70753;47.908;11.274;2023-09-18T12:57:25;3.97;;;1.00;;
81273;SDS011;70753;47.908;11.274;2023-09-18T12:59:50;3.35;;;1.00;;
81273;SDS011;70753;47.908;11.274;2023-09-18T13:02:16;2.88;;;1.00;;
81273;SDS011;70753;47.908;11.274;2023-09-18T13:04:51;4.20;;;1.00;;
81273;SDS011;70753;47.908;11.274;2023-09-18T13:07:17;2.85;;;1.05;;
81273;SDS011;70753;47.908;11.274;2023-09-18T13:09:42;3.85;;;1.20;;
81273;SDS011;70753;47.908;11.274;2023-09-18T13:12:09;3.55;;;1.30;;
81273;SDS011;70753;47.908;11.274;2023-09-18T13:17:22;6.65;;;2.17;;
81273;SDS011;70753;47.908;11.274;2023-09-18T13:19:48;2.83;;;1.10;;
81273;SDS011;70753;47.908;11.274;2023-09-18T13:22:21;3.72;;;1.13;;
81273;SDS011;70753;47.908;11.274;2023-09-18T13:24:47;6.40;;;1.20;;
81273;SDS011;70753;47.908;11.274;2023-09-18T13:27:21;4.65;;;1.08;;
81273;SDS011;70753;47.908;11.274;2023-09-18T13:29:47;4.88;;;1.42;;
81273;SDS011;70753;47.908;11.274;2023-09-18T13:32:13;4.30;;;1.23;;
81273;SDS011;70753;47.908;11.274;2023-09-18T13:34:38;5.68;;;1.10;;
81273;SDS011;70753;47.908;11.274;2023-09-18T13:37:04;4.53;;;1.30;;
81273;SDS011;70753;47.908;11.274;2023-09-18T13:39:30;4.35;;;1.10;;
81273;SDS011;70753;47.908;11.274;2023-09-18T13:41:56;3.80;;;1.05;;
81273;SDS011;70753;47.908;11.274;2023-09-18T13:44:22;4.18;;;1.02;;
81273;SDS011;70753;47.908;11.274;2023-09-18T13:46:48;3.15;;;1.20;;
81273;SDS011;70753;47.908;11.274;2023-09-18T13:49:15;2.63;;;1.00;;
81273;SDS011;70753;47.908;11.274;2023-09-18T13:51:40;2.38;;;0.93;;
81273;SDS011;70753;47.908;11.274;2023-09-18T13:54:06;1.77;;;0.85;;
81273;SDS011;70753;47.908;11.274;2023-09-18T13:56:31;3.17;;;1.00;;
81273;SDS011;70753;47.908;11.274;2023-09-18T13:58:57;2.33;;;0.77;;
81273;SDS011;70753;47.908;11.274;2023-09-18T14:01:23;4.15;;;1.00;;
81273;SDS011;70753;47.908;11.274;2023-09-18T14:03:49;1.80;;;0.90;;
81273;SDS011;70753;47.908;11.274;2023-09-18T14:06:15;3.92;;;1.00;;
81273;SDS011;70753;47.908;11.274;2023-09-18T14:08:41;1.80;;;0.85;;
81273;SDS011;70753;47.908;11.274;2023-09-18T14:11:06;2.63;;;0.80;;
81273;SDS011;70753;47.908;11.274;2023-09-18T14:13:32;1.60;;;0.77;;
81273;SDS011;70753;47.908;11.274;2023-09-18T14:15:57;2.20;;;0.80;;
81273;SDS011;70753;47.908;11.274;2023-09-18T14:18:24;2.38;;;0.90;;
81273;SDS011;70753;47.908;11.274;2023-09-18T14:20:50;2.30;;;0.85;;
81273;SDS011;70753;47.908;11.274;2023-09-18T14:23:15;3.17;;;0.88;;
81273;SDS011;70753;47.908;11.274;2023-09-18T14:25:40;3.53;;;0.90;;
81273;SDS011;70753;47.908;11.274;2023-09-18T14:28:06;3.88;;;1.13;;
81273;SDS011;70753;47.908;11.274;2023-09-18T14:30:31;3.95;;;1.02;;
81273;SDS011;70753;47.908;11.274;2023-09-18T14:32:57;3.78;;;0.90;;
81273;SDS011;70753;47.908;11.274;2023-09-18T14:35:24;2.50;;;0.80;;